createdAt,value
2018-01-08T00:01:53.427Z,15.80
2018-01-08T00:04:21.046Z,16.37
2018-01-08T00:06:48.658Z,13.30
2018-01-08T00:09:16.317Z,14.67
2018-01-08T00:11:44.406Z,14.60
2018-01-08T00:14:12.023Z,14.30
2018-01-08T00:16:39.610Z,14.83
2018-01-08T00:19:07.245Z,13.50
2018-01-08T00:21:35.613Z,14.27
2018-01-08T00:24:04.017Z,16.27
2018-01-08T00:26:31.628Z,18.57
2018-01-08T00:28:59.517Z,15.57
2018-01-08T00:31:27.115Z,16.70
2018-01-08T00:33:54.726Z,15.67
2018-01-08T00:36:22.362Z,17.40
2018-01-08T00:38:49.959Z,16.40
2018-01-08T00:41:17.587Z,20.33
2018-01-08T00:43:45.181Z,20.93
2018-01-08T00:46:12.778Z,22.20
2018-01-08T00:48:41.168Z,21.53
2018-01-08T00:51:08.766Z,19.93
2018-01-08T00:53:36.374Z,23.33
2018-01-08T00:56:04.112Z,23.67
2018-01-08T00:58:31.732Z,25.23
2018-01-08T01:00:59.336Z,26.70
2018-01-08T01:03:26.950Z,27.00
2018-01-08T01:05:56.096Z,26.00
2018-01-08T01:08:23.689Z,24.93
2018-01-08T01:10:51.290Z,28.93
2018-01-08T01:13:18.918Z,29.30
2018-01-08T01:15:46.525Z,26.40
2018-01-08T01:18:14.130Z,26.97
2018-01-08T01:20:41.725Z,27.53
2018-01-08T01:23:09.596Z,27.90
2018-01-08T01:25:37.201Z,23.93
2018-01-08T01:28:05.569Z,24.80
2018-01-08T01:30:33.955Z,28.00
2018-01-08T01:33:01.553Z,26.77
2018-01-08T01:35:29.191Z,27.50
2018-01-08T01:37:56.784Z,24.27
2018-01-08T01:40:24.405Z,25.60
2018-01-08T01:42:52.005Z,24.23
2018-01-08T01:45:20.391Z,25.10
2018-01-08T01:47:48.749Z,24.43
2018-01-08T01:50:16.345Z,23.70
2018-01-08T01:52:43.941Z,29.47
2018-01-08T01:55:11.547Z,24.80
2018-01-08T01:57:39.159Z,22.73
2018-01-08T02:00:06.767Z,24.47
2018-01-08T02:02:34.551Z,23.90
2018-01-08T02:05:02.149Z,23.83
2018-01-08T02:07:29.882Z,23.13
2018-01-08T02:09:57.484Z,25.90
2018-01-08T02:12:25.081Z,22.00
2018-01-08T02:14:52.688Z,23.97
2018-01-08T02:17:21.060Z,24.67
2018-01-08T02:19:48.691Z,24.37
2018-01-08T02:22:16.292Z,23.27
2018-01-08T02:24:44.685Z,22.23
2018-01-08T02:27:13.039Z,21.80
2018-01-08T02:29:40.633Z,21.50
2018-01-08T02:32:09.027Z,23.77
2018-01-08T02:34:37.401Z,23.60
2018-01-08T02:37:05.797Z,22.47
2018-01-08T02:39:34.154Z,23.53
2018-01-08T02:42:03.278Z,23.70
2018-01-08T02:44:31.633Z,22.00
2018-01-08T02:47:00.756Z,21.40
2018-01-08T02:49:29.126Z,23.00
2018-01-08T02:51:56.712Z,20.57
2018-01-08T02:54:24.327Z,25.03
2018-01-08T02:56:52.112Z,23.97
2018-01-08T02:59:19.734Z,24.90
2018-01-08T03:01:47.291Z,27.73
2018-01-08T03:04:14.910Z,27.00
2018-01-08T03:06:43.304Z,24.63
2018-01-08T03:09:10.894Z,28.47
2018-01-08T03:11:38.538Z,25.93
2018-01-08T03:14:06.124Z,29.33
2018-01-08T03:16:34.767Z,31.70
2018-01-08T03:19:02.431Z,34.13
2018-01-08T03:21:31.546Z,34.80
2018-01-08T03:23:59.935Z,35.33
2018-01-08T03:26:27.523Z,32.27
2018-01-08T03:28:55.899Z,32.80
2018-01-08T03:31:24.264Z,32.80
2018-01-08T03:33:51.906Z,34.43
2018-01-08T03:36:19.507Z,34.67
2018-01-08T03:38:47.127Z,33.90
2018-01-08T03:41:14.931Z,33.40
2018-01-08T03:43:43.282Z,32.70
2018-01-08T03:46:10.905Z,33.73
2018-01-08T03:48:39.273Z,32.83
2018-01-08T03:51:06.881Z,31.93
2018-01-08T03:53:34.491Z,31.53
2018-01-08T03:56:02.893Z,30.43
2018-01-08T03:58:31.507Z,31.87
2018-01-08T04:00:59.111Z,34.87
2018-01-08T04:03:26.739Z,31.53
2018-01-08T04:05:54.333Z,36.03
2018-01-08T04:08:22.203Z,32.83
2018-01-08T04:10:49.798Z,32.20
2018-01-08T04:13:18.160Z,32.37
2018-01-08T04:15:45.800Z,31.47
2018-01-08T04:18:13.409Z,32.20
2018-01-08T04:20:42.103Z,32.40
2018-01-08T04:23:10.470Z,31.90
2018-01-08T04:25:38.108Z,31.67
2018-01-08T04:28:05.730Z,31.70
2018-01-08T04:30:33.314Z,31.30
2018-01-08T04:33:02.030Z,32.07
2018-01-08T04:35:29.627Z,33.17
2018-01-08T04:37:58.748Z,29.60
2018-01-08T04:40:26.484Z,36.00
2018-01-08T04:42:54.086Z,34.17
2018-01-08T04:45:22.490Z,29.77
2018-01-08T04:47:50.074Z,33.23
2018-01-08T04:50:18.780Z,32.70
2018-01-08T04:52:47.201Z,32.27
2018-01-08T04:55:14.987Z,30.70
2018-01-08T04:57:43.353Z,31.30
2018-01-08T05:00:10.974Z,29.60
2018-01-08T05:02:38.665Z,30.00
2018-01-08T05:05:06.291Z,30.77
2018-01-08T05:07:33.924Z,28.70
2018-01-08T05:10:01.523Z,29.67
2018-01-08T05:12:29.417Z,30.03
2018-01-08T05:14:57.021Z,31.70
2018-01-08T05:17:24.663Z,30.90
2018-01-08T05:19:52.264Z,30.33
2018-01-08T05:24:42.468Z,31.53
2018-01-08T05:27:10.191Z,31.40
2018-01-08T05:29:37.793Z,34.63
2018-01-08T05:32:05.419Z,31.60
2018-01-08T05:34:33.019Z,30.50
2018-01-08T05:37:00.647Z,32.87
2018-01-08T05:39:28.305Z,29.60
2018-01-08T05:41:55.938Z,29.40
2018-01-08T05:44:23.614Z,31.60
2018-01-08T05:46:52.036Z,28.77
2018-01-08T05:49:20.402Z,30.67
2018-01-08T05:51:48.049Z,28.40
2018-01-08T05:54:15.690Z,27.43
2018-01-08T05:56:43.280Z,30.13
2018-01-08T05:59:11.630Z,28.10
2018-01-08T06:01:39.266Z,28.03
2018-01-08T06:04:06.886Z,28.20
2018-01-08T06:06:35.616Z,27.33
2018-01-08T06:09:03.186Z,28.10
2018-01-08T06:11:30.792Z,29.27
2018-01-08T06:13:58.434Z,29.37
2018-01-08T06:16:26.042Z,28.23
2018-01-08T06:18:53.666Z,30.00
2018-01-08T06:21:21.282Z,26.00
2018-01-08T06:23:49.663Z,29.20
2018-01-08T06:26:18.050Z,30.07
2018-01-08T06:28:46.405Z,28.33
2018-01-08T06:31:14.042Z,25.13
2018-01-08T06:33:41.641Z,25.20
2018-01-08T06:36:10.020Z,27.67
2018-01-08T06:38:37.675Z,25.40
2018-01-08T06:41:05.245Z,25.70
2018-01-08T06:43:33.125Z,27.40
2018-01-08T06:46:01.493Z,26.50
2018-01-08T06:48:29.451Z,24.70
2018-01-08T06:50:57.075Z,24.57
2018-01-08T06:53:24.863Z,23.70
2018-01-08T06:55:52.519Z,24.10
2018-01-08T06:58:20.188Z,23.57
2018-01-08T07:00:47.799Z,23.80
2018-01-08T07:03:15.409Z,24.93
2018-01-08T07:05:43.818Z,24.60
2018-01-08T07:08:11.511Z,24.03
2018-01-08T07:10:39.885Z,23.93
2018-01-08T07:13:07.523Z,27.23
2018-01-08T07:15:35.120Z,25.43
2018-01-08T07:18:02.726Z,21.83
2018-01-08T07:20:31.122Z,22.23
2018-01-08T07:22:59.482Z,23.27
2018-01-08T07:25:27.094Z,21.73
2018-01-08T07:27:54.695Z,24.30
2018-01-08T07:30:22.310Z,25.20
2018-01-08T07:32:50.662Z,25.80
2018-01-08T07:35:19.910Z,23.07
2018-01-08T07:37:47.528Z,26.87
2018-01-08T07:40:15.892Z,25.00
2018-01-08T07:42:43.770Z,25.60
2018-01-08T07:45:11.374Z,26.17
2018-01-08T07:47:39.751Z,25.00
2018-01-08T07:50:08.124Z,23.93
2018-01-08T07:52:36.514Z,27.90
2018-01-08T07:55:05.054Z,24.80
2018-01-08T07:57:32.667Z,27.67
2018-01-08T08:00:01.029Z,24.70
2018-01-08T08:02:28.660Z,26.87
2018-01-08T08:04:56.264Z,26.37
2018-01-08T08:07:23.883Z,25.33
2018-01-08T08:09:51.515Z,26.80
2018-01-08T08:12:20.242Z,26.40
2018-01-08T08:14:47.833Z,26.67
2018-01-08T08:17:15.456Z,26.43
2018-01-08T08:19:43.070Z,26.33
2018-01-08T08:22:10.696Z,25.37
2018-01-08T08:24:38.325Z,22.50
2018-01-08T08:27:05.919Z,22.63
2018-01-08T08:29:33.539Z,23.83
2018-01-08T08:32:01.171Z,22.93
2018-01-08T08:34:28.782Z,22.60
2018-01-08T08:36:57.161Z,21.07
2018-01-08T08:39:24.772Z,21.10
2018-01-08T08:41:52.654Z,21.87
2018-01-08T08:44:20.259Z,21.60
2018-01-08T08:46:49.362Z,22.63
2018-01-08T08:49:17.758Z,25.00
2018-01-08T08:51:45.354Z,23.03
2018-01-08T08:54:12.991Z,21.83
2018-01-08T08:56:41.511Z,18.80
2018-01-08T08:59:09.144Z,19.00
2018-01-08T09:01:37.537Z,19.20
2018-01-08T09:04:05.907Z,22.13
2018-01-08T09:06:33.531Z,20.80
2018-01-08T09:09:01.131Z,19.70
2018-01-08T09:11:28.786Z,21.57
2018-01-08T09:13:56.391Z,21.07
2018-01-08T09:16:24.772Z,22.13
2018-01-08T09:18:53.177Z,21.07
2018-01-08T09:21:20.774Z,21.97
2018-01-08T09:23:48.388Z,20.03
2018-01-08T09:26:16.749Z,21.17
2018-01-08T09:28:44.384Z,22.17
2018-01-08T09:31:11.990Z,21.23
2018-01-08T09:33:40.347Z,21.27
2018-01-08T09:36:08.017Z,24.40
2018-01-08T09:38:35.624Z,22.43
2018-01-08T09:41:03.261Z,23.57
2018-01-08T09:43:30.862Z,21.27
2018-01-08T09:45:58.533Z,21.63
2018-01-08T09:48:26.146Z,22.17
2018-01-08T09:50:53.886Z,20.53
2018-01-08T09:53:21.514Z,20.13
2018-01-08T09:55:49.908Z,21.60
2018-01-08T09:58:17.523Z,19.37
2018-01-08T10:00:45.130Z,19.47
2018-01-08T10:03:25.418Z,22.83
2018-01-08T10:06:05.676Z,20.50
2018-01-08T10:08:45.069Z,22.70
2018-01-08T10:11:25.311Z,22.10
2018-01-08T10:14:04.739Z,22.60
2018-01-08T10:16:44.895Z,24.63
2018-01-08T10:19:24.516Z,22.73
2018-01-08T10:21:52.063Z,21.60
2018-01-08T10:24:19.656Z,19.30
2018-01-08T10:26:47.291Z,21.90
2018-01-08T10:29:14.889Z,19.43
2018-01-08T10:31:42.649Z,19.37
2018-01-08T10:34:11.867Z,21.43
2018-01-08T10:36:39.466Z,22.20
2018-01-08T10:39:07.067Z,21.37
2018-01-08T10:41:40.325Z,20.13
2018-01-08T10:44:13.627Z,21.23
2018-01-08T10:46:46.963Z,18.13
2018-01-08T10:49:20.143Z,18.00
2018-01-08T10:51:47.260Z,19.90
2018-01-08T10:54:14.872Z,21.50
2018-01-08T10:56:42.478Z,20.57
2018-01-08T10:59:10.858Z,25.80
2018-01-08T11:01:44.767Z,28.70
2018-01-08T11:04:13.142Z,28.33
2018-01-08T11:06:40.735Z,24.20
2018-01-08T11:09:08.370Z,24.17
2018-01-08T11:11:35.959Z,26.30
2018-01-08T11:14:03.580Z,26.60
2018-01-08T11:16:31.173Z,27.20
2018-01-08T11:18:59.512Z,19.03
2018-01-08T11:21:27.144Z,23.20
2018-01-08T11:23:54.739Z,24.77
2018-01-08T11:26:22.332Z,28.10
2018-01-08T11:28:50.738Z,29.20
2018-01-08T11:31:19.091Z,24.73
2018-01-08T11:33:46.725Z,25.53
2018-01-08T11:36:14.331Z,27.40
2018-01-08T11:38:43.521Z,23.87
2018-01-08T11:41:11.186Z,24.23
2018-01-08T11:43:38.850Z,23.90
2018-01-08T11:46:06.541Z,24.00
2018-01-08T11:48:34.139Z,25.13
2018-01-08T11:51:01.699Z,19.53
2018-01-08T11:53:29.293Z,24.23
2018-01-08T11:55:56.911Z,22.03
2018-01-08T11:58:25.267Z,22.23
2018-01-08T12:00:53.635Z,21.93
2018-01-08T12:03:21.261Z,25.03
2018-01-08T12:05:48.867Z,19.90
2018-01-08T12:08:16.481Z,20.00
2018-01-08T12:10:44.833Z,17.93
2018-01-08T12:13:12.471Z,26.50
2018-01-08T12:15:40.080Z,20.53
2018-01-08T12:18:07.676Z,20.40
2018-01-08T12:20:35.278Z,17.80
2018-01-08T12:23:02.878Z,21.20
2018-01-08T12:25:30.542Z,18.87
2018-01-08T12:27:58.210Z,24.70
2018-01-08T12:30:27.055Z,19.00
2018-01-08T12:32:54.914Z,21.90
2018-01-08T12:35:22.518Z,19.23
2018-01-08T12:37:50.138Z,18.30
2018-01-08T12:40:17.764Z,15.60
2018-01-08T12:42:46.150Z,17.03
2018-01-08T12:45:14.530Z,17.30
2018-01-08T12:47:43.242Z,16.00
2018-01-08T12:50:11.583Z,16.50
2018-01-08T12:52:39.197Z,14.73
2018-01-08T12:55:07.576Z,17.23
2018-01-08T12:57:35.948Z,23.07
2018-01-08T13:00:03.656Z,23.20
2018-01-08T13:02:31.254Z,21.47
2018-01-08T13:04:58.886Z,21.37
2018-01-08T13:07:26.497Z,29.73
2018-01-08T13:09:55.621Z,23.80
2018-01-08T13:12:23.330Z,19.43
2018-01-08T13:14:50.999Z,31.30
2018-01-08T13:17:18.618Z,29.60
2018-01-08T13:19:47.020Z,28.40
2018-01-08T13:22:14.643Z,23.23
2018-01-08T13:24:42.245Z,26.87
2018-01-08T13:27:10.652Z,26.40
2018-01-08T13:29:38.282Z,29.23
2018-01-08T13:32:06.668Z,20.33
2018-01-08T13:34:35.041Z,19.17
2018-01-08T13:37:02.627Z,17.80
2018-01-08T13:39:30.300Z,16.70
2018-01-08T13:41:57.866Z,19.20
2018-01-08T13:44:25.529Z,19.53
2018-01-08T13:46:53.126Z,18.37
2018-01-08T13:49:20.750Z,18.10
2018-01-08T13:51:49.123Z,17.23
2018-01-08T13:54:17.531Z,18.20
2018-01-08T13:56:45.128Z,17.60
2018-01-08T13:59:12.726Z,17.77
2018-01-08T14:01:40.343Z,20.73
2018-01-08T14:04:08.764Z,20.83
2018-01-08T14:06:36.388Z,19.43
2018-01-08T14:09:03.968Z,19.77
2018-01-08T14:11:31.692Z,21.57
2018-01-08T14:14:00.248Z,18.77
2018-01-08T14:16:27.853Z,18.07
2018-01-08T14:18:56.458Z,18.60
2018-01-08T14:21:24.067Z,18.23
2018-01-08T14:23:51.712Z,17.10
2018-01-08T14:26:19.402Z,20.57
2018-01-08T14:28:47.031Z,19.57
2018-01-08T14:31:15.440Z,20.17
2018-01-08T14:33:43.062Z,18.97
2018-01-08T14:36:11.576Z,23.43
2018-01-08T14:38:39.166Z,18.50
2018-01-08T14:41:06.792Z,17.30
2018-01-08T14:43:34.356Z,17.57
2018-01-08T14:46:02.018Z,19.30
2018-01-08T14:48:29.648Z,19.53
2018-01-08T14:50:57.267Z,16.90
2018-01-08T14:53:24.903Z,17.73
2018-01-08T14:55:53.278Z,17.37
2018-01-08T14:58:21.716Z,17.27
2018-01-08T15:00:49.371Z,17.70
2018-01-08T15:03:16.991Z,17.53
2018-01-08T15:05:45.331Z,18.00
2018-01-08T15:08:12.902Z,16.40
2018-01-08T15:10:40.542Z,17.83
2018-01-08T15:13:08.136Z,17.40
2018-01-08T15:15:35.757Z,17.97
2018-01-08T15:18:03.351Z,17.57
2018-01-08T15:20:30.961Z,17.73
2018-01-08T15:22:58.586Z,18.30
2018-01-08T15:25:26.189Z,17.20
2018-01-08T15:27:53.809Z,17.53
2018-01-08T15:30:21.431Z,17.70
2018-01-08T15:32:50.171Z,17.90
2018-01-08T15:35:17.775Z,17.73
2018-01-08T15:37:45.385Z,17.83
2018-01-08T15:40:13.030Z,18.30
2018-01-08T15:42:41.419Z,15.43
2018-01-08T15:45:09.129Z,15.83
2018-01-08T15:47:36.752Z,16.30
2018-01-08T15:50:05.148Z,16.80
2018-01-08T15:52:32.760Z,14.90
2018-01-08T15:55:00.367Z,18.50
2018-01-08T15:57:27.998Z,17.07
2018-01-08T15:59:56.442Z,16.40
2018-01-08T16:02:24.076Z,21.40
2018-01-08T16:04:52.431Z,20.27
2018-01-08T16:07:20.056Z,18.77
2018-01-08T16:09:47.686Z,18.20
2018-01-08T16:12:16.094Z,19.27
2018-01-08T16:14:43.731Z,16.80
2018-01-08T16:17:12.092Z,21.07
2018-01-08T16:19:40.517Z,22.60
2018-01-08T16:22:08.146Z,19.10
2018-01-08T16:24:36.597Z,17.47
2018-01-08T16:27:04.221Z,21.10
2018-01-08T16:29:32.608Z,20.17
2018-01-08T16:32:00.254Z,17.70
2018-01-08T16:34:28.642Z,18.20
2018-01-08T16:36:56.566Z,14.40
2018-01-08T16:39:24.160Z,16.87
2018-01-08T16:41:51.778Z,15.83
2018-01-08T16:44:19.404Z,16.60
2018-01-08T16:46:47.008Z,15.57
2018-01-08T16:49:14.641Z,15.83
2018-01-08T16:51:42.260Z,15.23
2018-01-08T16:54:10.051Z,17.97
2018-01-08T16:56:37.781Z,15.67
2018-01-08T16:59:05.547Z,16.47
2018-01-08T17:01:33.164Z,17.73
2018-01-08T17:04:00.889Z,18.23
2018-01-08T17:06:28.540Z,17.67
2018-01-08T17:08:56.922Z,17.27
2018-01-08T17:11:24.547Z,17.60
2018-01-08T17:13:52.171Z,16.63
2018-01-08T17:16:19.775Z,17.77
2018-01-08T17:18:47.404Z,18.63
2018-01-08T17:21:15.012Z,17.97
2018-01-08T17:23:42.657Z,16.83
2018-01-08T17:26:10.261Z,14.87
2018-01-08T17:28:38.637Z,16.43
2018-01-08T17:31:06.251Z,18.27
2018-01-08T17:33:33.848Z,19.90
2018-01-08T17:36:01.459Z,20.03
2018-01-08T17:38:29.865Z,16.60
2018-01-08T17:40:58.139Z,16.80
2018-01-08T17:43:25.781Z,18.20
2018-01-08T17:45:54.190Z,16.37
2018-01-08T17:48:21.833Z,19.40
2018-01-08T17:50:50.224Z,29.67
2018-01-08T17:53:18.644Z,28.10
2018-01-08T17:55:46.254Z,33.13
2018-01-08T17:58:13.939Z,21.53
2018-01-08T18:00:41.587Z,25.50
2018-01-08T18:03:09.247Z,16.17
2018-01-08T18:05:37.628Z,15.50
2018-01-08T18:08:05.266Z,17.07
2018-01-08T18:10:32.915Z,16.57
2018-01-08T18:13:00.539Z,17.00
2018-01-08T18:15:28.170Z,15.57
2018-01-08T18:17:55.779Z,15.93
2018-01-08T18:20:24.565Z,20.50
2018-01-08T18:22:53.101Z,15.33
2018-01-08T18:25:20.784Z,16.77
2018-01-08T18:27:48.535Z,14.97
2018-01-08T18:30:16.186Z,16.90
2018-01-08T18:32:43.942Z,13.10
2018-01-08T18:35:11.602Z,13.27
2018-01-08T18:37:39.983Z,14.53
2018-01-08T18:40:08.409Z,21.97
2018-01-08T18:42:36.036Z,19.20
2018-01-08T18:45:04.446Z,17.30
2018-01-08T18:47:32.053Z,16.83
2018-01-08T18:49:59.731Z,17.17
2018-01-08T18:52:27.339Z,15.60
2018-01-08T18:54:54.987Z,14.37
2018-01-08T18:57:23.596Z,13.30
2018-01-08T18:59:51.287Z,15.50
2018-01-08T19:02:18.953Z,12.40
2018-01-08T19:04:46.602Z,15.30
2018-01-08T19:07:14.382Z,20.10
2018-01-08T19:09:42.102Z,19.10
2018-01-08T19:12:10.547Z,19.87
2018-01-08T19:14:38.248Z,18.47
2018-01-08T19:17:06.803Z,13.70
2018-01-08T19:19:34.483Z,13.33
2018-01-08T19:22:02.173Z,13.80
2018-01-08T19:24:30.665Z,14.60
2018-01-08T19:26:59.135Z,23.47
2018-01-08T19:29:26.947Z,24.40
2018-01-08T19:31:54.737Z,18.57
2018-01-08T19:34:22.586Z,21.27
2018-01-08T19:36:50.286Z,25.30
2018-01-08T19:39:19.051Z,30.60
2018-01-08T19:41:46.799Z,23.47
2018-01-08T19:44:14.500Z,32.17
2018-01-08T19:46:42.201Z,24.27
2018-01-08T19:49:10.163Z,30.47
2018-01-08T19:51:37.810Z,29.17
2018-01-08T19:54:05.557Z,17.87
2018-01-08T19:56:33.277Z,60.63
2018-01-08T19:59:01.094Z,71.63
2018-01-08T20:01:28.833Z,28.43
2018-01-08T20:03:57.279Z,24.07
2018-01-08T20:06:25.024Z,15.20
2018-01-08T20:08:52.781Z,14.17
2018-01-08T20:11:20.667Z,16.60
2018-01-08T20:13:48.837Z,17.47
2018-01-08T20:16:16.601Z,15.90
2018-01-08T20:18:44.395Z,15.93
2018-01-08T20:21:12.072Z,15.60
2018-01-08T20:23:40.525Z,16.33
2018-01-08T20:26:08.267Z,16.23
2018-01-08T20:28:36.772Z,15.53
2018-01-08T20:31:04.522Z,15.30
2018-01-08T20:33:33.023Z,17.40
2018-01-08T20:36:00.782Z,15.30
2018-01-08T20:38:29.396Z,14.67
2018-01-08T20:40:57.164Z,17.07
2018-01-08T20:43:24.890Z,14.57
2018-01-08T20:45:54.339Z,13.67
2018-01-08T20:48:22.057Z,17.43
2018-01-08T20:50:49.740Z,14.20
2018-01-08T20:53:17.485Z,15.53
2018-01-08T20:55:45.116Z,15.90
2018-01-08T20:58:12.753Z,15.90
2018-01-08T21:00:41.182Z,14.87
2018-01-08T21:03:08.851Z,14.30
2018-01-08T21:05:36.506Z,13.47
2018-01-08T21:08:04.179Z,15.10
2018-01-08T21:10:31.852Z,14.40
2018-01-08T21:12:59.506Z,14.37
2018-01-08T21:15:27.170Z,13.80
2018-01-08T21:17:54.856Z,13.23
2018-01-08T21:20:22.536Z,13.77
2018-01-08T21:22:50.264Z,12.57
2018-01-08T21:25:17.959Z,14.33
2018-01-08T21:27:45.625Z,17.30
2018-01-08T21:30:13.244Z,17.10
2018-01-08T21:32:41.668Z,17.70
2018-01-08T21:35:09.344Z,18.87
2018-01-08T21:37:37.011Z,16.93
2018-01-08T21:40:04.683Z,14.73
2018-01-08T21:42:32.502Z,17.10
2018-01-08T21:45:00.882Z,17.10
2018-01-08T21:47:29.304Z,12.40
2018-01-08T21:49:56.921Z,15.33
2018-01-08T21:52:24.563Z,14.60
2018-01-08T21:54:52.176Z,15.63
2018-01-08T21:57:19.799Z,15.23
2018-01-08T21:59:47.431Z,16.37
2018-01-08T22:02:15.069Z,13.43
2018-01-08T22:04:43.131Z,15.30
2018-01-08T22:07:11.529Z,14.97
2018-01-08T22:09:39.926Z,17.10
2018-01-08T22:12:07.561Z,17.20
2018-01-08T22:14:35.181Z,16.73
2018-01-08T22:17:02.805Z,17.00
2018-01-08T22:19:31.171Z,17.60
2018-01-08T22:21:59.228Z,17.07
2018-01-08T22:24:26.873Z,17.67
2018-01-08T22:26:54.605Z,18.73
2018-01-08T22:29:22.234Z,18.10
2018-01-08T22:31:49.832Z,18.40
2018-01-08T22:34:18.242Z,19.63
2018-01-08T22:36:45.852Z,16.87
2018-01-08T22:39:15.125Z,19.07
2018-01-08T22:41:42.770Z,17.93
2018-01-08T22:44:10.374Z,18.63
2018-01-08T22:46:37.984Z,18.37
2018-01-08T22:49:06.344Z,18.67
2018-01-08T22:51:34.270Z,18.10
2018-01-08T22:54:01.887Z,19.67
2018-01-08T22:56:30.250Z,18.00
2018-01-08T22:58:57.889Z,17.60
2018-01-08T23:01:25.500Z,17.33
2018-01-08T23:03:53.124Z,16.57
2018-01-08T23:06:20.705Z,16.57
2018-01-08T23:08:48.312Z,17.63
2018-01-08T23:11:16.689Z,17.83
2018-01-08T23:13:45.161Z,19.07
2018-01-08T23:16:13.584Z,18.43
2018-01-08T23:18:41.197Z,16.53
2018-01-08T23:21:08.793Z,16.73
2018-01-08T23:23:37.170Z,17.80
2018-01-08T23:26:05.549Z,19.37
2018-01-08T23:28:33.195Z,18.63
2018-01-08T23:31:01.555Z,17.93
2018-01-08T23:33:29.237Z,15.77
2018-01-08T23:35:56.843Z,16.97
2018-01-08T23:38:25.211Z,17.97
2018-01-08T23:40:52.817Z,16.93
2018-01-08T23:43:20.425Z,17.07
2018-01-08T23:45:48.043Z,17.67
2018-01-08T23:48:15.639Z,17.00
2018-01-08T23:50:43.240Z,17.00
2018-01-08T23:53:12.369Z,15.50
2018-01-08T23:55:39.976Z,16.97
2018-01-08T23:58:07.597Z,15.70
